createdAt,value
2023-02-24T00:00:06.968Z,29.50
2023-02-24T00:01:06.955Z,29.80
2023-02-24T00:02:06.999Z,29.60
2023-02-24T00:03:06.965Z,30.70
2023-02-24T00:04:06.913Z,30.10
2023-02-24T00:05:06.902Z,30.80
2023-02-24T00:06:06.893Z,29.20
2023-02-24T00:07:06.925Z,29.10
2023-02-24T00:08:06.874Z,30.60
2023-02-24T00:09:06.881Z,30.10
2023-02-24T00:10:06.852Z,29.50
2023-02-24T00:11:06.834Z,29.10
2023-02-24T00:12:06.842Z,29.00
2023-02-24T00:13:06.821Z,29.50
2023-02-24T00:14:06.807Z,30.90
2023-02-24T00:15:06.793Z,30.80
2023-02-24T00:16:06.838Z,31.30
2023-02-24T00:17:06.870Z,32.50
2023-02-24T00:18:06.789Z,30.70
2023-02-24T00:19:06.752Z,29.60
2023-02-24T00:20:06.745Z,31.20
2023-02-24T00:21:06.734Z,30.20
2023-02-24T00:22:06.737Z,31.90
2023-02-24T00:23:06.714Z,31.30
2023-02-24T00:24:06.704Z,31.50
2023-02-24T00:25:06.685Z,32.40
2023-02-24T00:26:06.705Z,33.00
2023-02-24T00:27:06.679Z,33.90
2023-02-24T00:28:06.674Z,34.40
2023-02-24T00:29:06.649Z,33.60
2023-02-24T00:30:07.542Z,32.10
2023-02-24T00:31:06.715Z,32.70
2023-02-24T00:32:06.931Z,32.10
2023-02-24T00:33:06.685Z,33.20
2023-02-24T00:34:06.605Z,32.80
2023-02-24T00:35:06.587Z,33.00
2023-02-24T00:36:06.585Z,34.10
2023-02-24T00:37:06.583Z,34.50
2023-02-24T00:38:06.558Z,33.60
2023-02-24T00:39:06.547Z,32.60
2023-02-24T00:40:06.538Z,32.70
2023-02-24T00:41:06.528Z,33.30
2023-02-24T00:42:06.581Z,33.70
2023-02-24T00:43:06.512Z,36.00
2023-02-24T00:44:06.511Z,35.30
2023-02-24T00:45:06.486Z,32.20
2023-02-24T00:46:06.514Z,27.90
2023-02-24T00:47:06.483Z,23.90
2023-02-24T00:48:06.465Z,18.70
2023-02-24T00:49:06.445Z,17.30
2023-02-24T00:50:06.437Z,17.90
2023-02-24T00:51:06.424Z,18.80
2023-02-24T00:52:06.522Z,18.00
2023-02-24T00:53:06.414Z,19.00
2023-02-24T00:54:06.395Z,18.50
2023-02-24T00:55:06.385Z,19.40
2023-02-24T00:56:06.376Z,17.90
2023-02-24T00:57:06.376Z,18.50
2023-02-24T00:58:06.356Z,18.10
2023-02-24T00:59:06.350Z,18.00
2023-02-24T01:00:06.351Z,18.70
2023-02-24T01:01:06.318Z,19.30
2023-02-24T01:02:06.344Z,18.60
2023-02-24T01:03:06.300Z,18.90
2023-02-24T01:04:06.370Z,18.50
2023-02-24T01:05:06.286Z,19.10
2023-02-24T01:06:06.298Z,17.80
2023-02-24T01:07:06.274Z,20.50
2023-02-24T01:08:06.267Z,19.10
2023-02-24T01:09:06.239Z,17.90
2023-02-24T01:10:06.222Z,17.70
2023-02-24T01:11:06.223Z,19.50
2023-02-24T01:12:06.275Z,18.00
2023-02-24T01:13:06.198Z,18.80
2023-02-24T01:14:06.180Z,17.50
2023-02-24T01:15:06.187Z,18.20
2023-02-24T01:16:06.198Z,21.00
2023-02-24T01:17:06.171Z,19.00
2023-02-24T01:18:06.135Z,18.40
2023-02-24T01:19:06.123Z,20.10
2023-02-24T01:20:06.115Z,18.00
2023-02-24T01:21:06.125Z,20.20
2023-02-24T01:22:06.108Z,20.30
2023-02-24T01:23:06.130Z,18.80
2023-02-24T01:24:06.101Z,19.70
2023-02-24T01:25:06.074Z,21.60
2023-02-24T01:26:06.056Z,20.60
2023-02-24T01:27:06.100Z,19.70
2023-02-24T01:28:06.056Z,19.20
2023-02-24T01:29:06.026Z,20.90
2023-02-24T01:30:06.008Z,22.10
2023-02-24T01:31:06.129Z,18.50
2023-02-24T01:32:06.102Z,18.10
2023-02-24T01:33:06.167Z,16.60
2023-02-24T01:34:06.052Z,17.30
2023-02-24T01:35:05.964Z,16.60
2023-02-24T01:36:05.948Z,15.90
2023-02-24T01:37:05.940Z,15.90
2023-02-24T01:38:05.950Z,16.20
2023-02-24T01:39:05.935Z,16.90
2023-02-24T01:40:05.909Z,15.80
2023-02-24T01:41:05.902Z,17.50
2023-02-24T01:42:05.890Z,17.20
2023-02-24T01:43:05.893Z,16.70
2023-02-24T01:44:05.863Z,17.10
2023-02-24T01:45:05.854Z,18.90
2023-02-24T01:46:05.856Z,18.30
2023-02-24T01:47:05.835Z,18.10
2023-02-24T01:48:05.851Z,17.80
2023-02-24T01:49:05.816Z,18.40
2023-02-24T01:50:05.804Z,17.30
2023-02-24T01:51:05.802Z,17.10
2023-02-24T01:52:05.788Z,16.80
2023-02-24T01:53:05.801Z,15.00
2023-02-24T01:54:05.763Z,14.00
2023-02-24T01:55:05.764Z,14.50
2023-02-24T01:56:05.747Z,13.10
2023-02-24T01:57:05.753Z,12.20
2023-02-24T01:58:05.743Z,13.00
2023-02-24T01:59:05.711Z,12.60
2023-02-24T02:00:05.704Z,12.10
2023-02-24T02:01:05.692Z,12.00
2023-02-24T02:02:05.812Z,12.80
2023-02-24T02:03:05.705Z,12.90
2023-02-24T02:04:05.660Z,11.80
2023-02-24T02:05:05.663Z,12.40
2023-02-24T02:06:05.658Z,12.60
2023-02-24T02:07:05.646Z,11.40
2023-02-24T02:08:05.655Z,11.80
2023-02-24T02:09:05.611Z,11.80
2023-02-24T02:10:05.602Z,11.90
2023-02-24T02:11:05.586Z,11.30
2023-02-24T02:12:05.573Z,11.90
2023-02-24T02:13:05.583Z,11.10
2023-02-24T02:14:05.578Z,12.00
2023-02-24T02:15:05.535Z,11.70
2023-02-24T02:16:05.633Z,12.00
2023-02-24T02:17:05.575Z,11.80
2023-02-24T02:18:05.540Z,12.00
2023-02-24T02:19:05.497Z,12.90
2023-02-24T02:20:05.488Z,11.50
2023-02-24T02:21:05.477Z,11.10
2023-02-24T02:22:05.479Z,12.10
2023-02-24T02:23:05.479Z,12.30
2023-02-24T02:24:05.445Z,11.70
2023-02-24T02:25:05.439Z,11.70
2023-02-24T02:26:05.436Z,11.90
2023-02-24T02:27:05.418Z,11.30
2023-02-24T02:28:05.410Z,11.50
2023-02-24T02:29:05.393Z,11.70
2023-02-24T02:30:05.379Z,12.50
2023-02-24T02:31:05.521Z,12.10
2023-02-24T02:32:05.549Z,12.60
2023-02-24T02:33:05.371Z,11.70
2023-02-24T02:34:05.347Z,12.40
2023-02-24T02:35:05.332Z,12.60
2023-02-24T02:36:05.324Z,12.60
2023-02-24T02:37:05.315Z,12.90
2023-02-24T02:38:05.317Z,13.00
2023-02-24T02:39:05.301Z,13.30
2023-02-24T02:40:05.300Z,11.80
2023-02-24T02:41:05.272Z,13.10
2023-02-24T02:42:05.256Z,12.30
2023-02-24T02:43:05.268Z,12.80
2023-02-24T02:44:05.234Z,12.50
2023-02-24T02:45:05.240Z,13.40
2023-02-24T02:46:05.275Z,12.40
2023-02-24T02:47:05.202Z,12.90
2023-02-24T02:48:05.209Z,12.80
2023-02-24T02:49:05.184Z,12.80
2023-02-24T02:50:05.163Z,13.20
2023-02-24T02:51:05.163Z,12.50
2023-02-24T02:52:05.153Z,12.60
2023-02-24T02:53:05.154Z,12.90
2023-02-24T02:54:05.162Z,12.90
2023-02-24T02:55:05.130Z,13.30
2023-02-24T02:56:05.104Z,13.00
2023-02-24T02:57:05.098Z,12.60
2023-02-24T02:58:05.095Z,12.70
2023-02-24T02:59:05.066Z,12.60
2023-02-24T03:00:05.101Z,12.50
2023-02-24T03:01:05.111Z,12.40
2023-02-24T03:02:05.034Z,13.10
2023-02-24T03:03:05.051Z,12.60
2023-02-24T03:04:05.005Z,13.00
2023-02-24T03:05:05.115Z,12.30
2023-02-24T03:06:05.001Z,13.90
2023-02-24T03:07:04.984Z,13.60
2023-02-24T03:08:05.004Z,13.90
2023-02-24T03:09:04.967Z,12.40
2023-02-24T03:10:04.956Z,13.20
2023-02-24T03:11:04.948Z,12.50
2023-02-24T03:12:04.927Z,12.00
2023-02-24T03:13:04.937Z,13.70
2023-02-24T03:14:04.905Z,12.30
2023-02-24T03:15:04.897Z,12.10
2023-02-24T03:16:04.900Z,11.70
2023-02-24T03:17:04.877Z,11.80
2023-02-24T03:18:04.879Z,11.90
2023-02-24T03:19:04.878Z,11.70
2023-02-24T03:20:04.845Z,11.40
2023-02-24T03:21:04.832Z,12.40
2023-02-24T03:22:04.831Z,12.40
2023-02-24T03:23:04.840Z,11.90
2023-02-24T03:24:04.807Z,12.10
2023-02-24T03:25:04.792Z,12.60
2023-02-24T03:26:04.778Z,11.50
2023-02-24T03:27:04.777Z,11.60
2023-02-24T03:28:04.754Z,12.00
2023-02-24T03:29:04.773Z,11.80
2023-02-24T03:30:04.736Z,11.80
2023-02-24T03:31:04.813Z,11.40
2023-02-24T03:32:04.847Z,11.20
2023-02-24T03:33:04.705Z,11.50
2023-02-24T03:34:04.713Z,11.30
2023-02-24T03:35:04.687Z,10.70
2023-02-24T03:36:04.675Z,10.10
2023-02-24T03:37:04.668Z,10.00
2023-02-24T03:38:04.663Z,11.10
2023-02-24T03:39:04.667Z,9.40
2023-02-24T03:40:04.628Z,10.60
2023-02-24T03:41:04.631Z,10.60
2023-02-24T03:42:04.609Z,10.00
2023-02-24T03:43:04.607Z,9.60
2023-02-24T03:44:04.612Z,9.40
2023-02-24T03:45:04.586Z,9.40
2023-02-24T03:46:04.622Z,9.90
2023-02-24T03:47:04.577Z,10.30
2023-02-24T03:48:04.543Z,10.70
2023-02-24T03:49:04.560Z,9.40
2023-02-24T03:50:04.525Z,10.90
2023-02-24T03:51:04.525Z,10.50
2023-02-24T03:52:04.503Z,10.60
2023-02-24T03:53:04.498Z,10.80
2023-02-24T03:54:04.512Z,11.20
2023-02-24T03:55:04.471Z,10.80
2023-02-24T03:56:04.462Z,10.70
2023-02-24T03:57:04.453Z,11.90
2023-02-24T03:58:04.440Z,11.40
2023-02-24T03:59:04.468Z,11.20
2023-02-24T04:00:04.428Z,11.00
2023-02-24T04:01:04.423Z,11.30
2023-02-24T04:02:04.443Z,11.40
2023-02-24T04:03:04.391Z,11.70
2023-02-24T04:04:04.394Z,11.40
2023-02-24T04:05:04.404Z,11.00
2023-02-24T04:06:04.356Z,10.40
2023-02-24T04:07:04.345Z,12.50
2023-02-24T04:08:04.402Z,11.40
2023-02-24T04:09:04.376Z,11.80
2023-02-24T04:10:04.339Z,11.90
2023-02-24T04:11:04.307Z,12.20
2023-02-24T04:12:04.286Z,11.90
2023-02-24T04:13:04.302Z,11.70
2023-02-24T04:14:04.285Z,12.50
2023-02-24T04:15:04.269Z,11.80
2023-02-24T04:16:04.279Z,11.90
2023-02-24T04:17:04.240Z,11.30
2023-02-24T04:18:04.247Z,11.40
2023-02-24T04:19:04.240Z,12.00
2023-02-24T04:20:04.200Z,11.90
2023-02-24T04:21:04.207Z,11.60
2023-02-24T04:22:04.184Z,12.10
2023-02-24T04:23:04.221Z,12.10
2023-02-24T04:24:04.183Z,12.00
2023-02-24T04:25:04.167Z,11.00
2023-02-24T04:26:04.146Z,11.60
2023-02-24T04:27:04.151Z,12.10
2023-02-24T04:28:04.146Z,11.40
2023-02-24T04:29:04.142Z,11.90
2023-02-24T04:30:04.107Z,11.50
2023-02-24T04:31:04.177Z,12.00
2023-02-24T04:32:04.335Z,11.80
2023-02-24T04:33:04.092Z,12.20
2023-02-24T04:34:04.084Z,11.50
2023-02-24T04:35:04.054Z,11.80
2023-02-24T04:36:04.036Z,12.20
2023-02-24T04:37:04.033Z,11.70
2023-02-24T04:38:04.016Z,12.10
2023-02-24T04:39:04.028Z,10.90
2023-02-24T04:40:04.003Z,11.60
2023-02-24T04:41:03.996Z,11.70
2023-02-24T04:42:03.986Z,11.30
2023-02-24T04:43:03.979Z,10.90
2023-02-24T04:44:03.987Z,11.00
2023-02-24T04:45:03.949Z,10.80
2023-02-24T04:46:03.959Z,11.20
2023-02-24T04:47:03.972Z,10.40
2023-02-24T04:48:03.922Z,10.10
2023-02-24T04:49:03.920Z,10.10
2023-02-24T04:50:03.897Z,9.80
2023-02-24T04:51:03.886Z,9.60
2023-02-24T04:52:03.873Z,10.10
2023-02-24T04:53:03.872Z,9.50
2023-02-24T04:54:03.869Z,8.80
2023-02-24T04:55:03.841Z,8.80
2023-02-24T04:56:03.830Z,9.00
2023-02-24T04:57:03.820Z,9.40
2023-02-24T04:58:03.810Z,9.10
2023-02-24T04:59:03.826Z,10.10
2023-02-24T05:00:03.799Z,9.30
2023-02-24T05:01:03.783Z,9.50
2023-02-24T05:02:03.763Z,9.00
2023-02-24T05:03:03.766Z,9.00
2023-02-24T05:04:03.821Z,9.40
2023-02-24T05:05:03.745Z,8.60
2023-02-24T05:06:03.727Z,9.80
2023-02-24T05:07:03.729Z,10.00
2023-02-24T05:08:03.707Z,9.10
2023-02-24T05:09:03.718Z,9.60
2023-02-24T05:10:03.684Z,9.60
2023-02-24T05:11:03.684Z,9.70
2023-02-24T05:12:03.668Z,9.80
2023-02-24T05:13:03.661Z,10.20
2023-02-24T05:14:03.660Z,9.70
2023-02-24T05:15:03.632Z,10.00
2023-02-24T05:16:03.712Z,9.90
2023-02-24T05:17:03.612Z,10.50
2023-02-24T05:18:03.602Z,10.40
2023-02-24T05:19:03.612Z,10.00
2023-02-24T05:20:03.582Z,10.60
2023-02-24T05:21:03.577Z,10.60
2023-02-24T05:22:03.573Z,10.50
2023-02-24T05:23:03.561Z,11.00
2023-02-24T05:24:03.568Z,11.50
2023-02-24T05:25:03.530Z,10.70
2023-02-24T05:26:03.523Z,10.30
2023-02-24T05:27:03.521Z,11.20
2023-02-24T05:28:03.505Z,10.90
2023-02-24T05:29:03.506Z,10.60
2023-02-24T05:30:03.497Z,11.00
2023-02-24T05:31:03.550Z,10.30
2023-02-24T05:32:03.565Z,10.90
2023-02-24T05:33:03.452Z,10.50
2023-02-24T05:34:03.463Z,10.90
2023-02-24T05:35:03.429Z,10.90
2023-02-24T05:36:04.822Z,10.10
2023-02-24T05:37:03.409Z,9.50
2023-02-24T05:38:03.400Z,10.30
2023-02-24T05:39:03.399Z,9.80
2023-02-24T05:40:03.379Z,9.50
2023-02-24T05:41:03.364Z,9.50
2023-02-24T05:42:03.353Z,9.90
2023-02-24T05:43:03.349Z,9.80
2023-02-24T05:44:03.353Z,9.90
2023-02-24T05:45:03.320Z,9.50
2023-02-24T05:46:03.317Z,9.40
2023-02-24T05:47:03.379Z,9.70
2023-02-24T05:48:03.296Z,9.10
2023-02-24T05:49:03.300Z,8.20
2023-02-24T05:50:03.270Z,8.90
2023-02-24T05:51:05.158Z,8.60
2023-02-24T05:52:03.248Z,9.10
2023-02-24T05:53:03.234Z,8.90
2023-02-24T05:54:03.260Z,8.20
2023-02-24T05:55:03.233Z,8.80
2023-02-24T05:56:03.210Z,9.40
2023-02-24T05:57:03.196Z,9.10
2023-02-24T05:58:03.190Z,8.30
2023-02-24T05:59:03.194Z,10.00
2023-02-24T06:00:03.171Z,9.20
2023-02-24T06:01:03.203Z,9.10
2023-02-24T06:02:03.227Z,9.70
2023-02-24T06:03:03.182Z,9.70
2023-02-24T06:04:03.165Z,9.40
2023-02-24T06:05:03.103Z,10.40
2023-02-24T06:06:03.105Z,10.00
2023-02-24T06:07:03.105Z,10.40
2023-02-24T06:08:03.044Z,11.60
2023-02-24T06:09:03.084Z,11.90
2023-02-24T06:10:03.064Z,12.20
2023-02-24T06:11:03.003Z,11.80
2023-02-24T06:12:03.092Z,12.10
2023-02-24T06:13:02.976Z,11.90
2023-02-24T06:14:02.997Z,12.20
2023-02-24T06:15:02.953Z,11.90
2023-02-24T06:16:03.007Z,11.40
2023-02-24T06:17:02.926Z,12.60
2023-02-24T06:18:02.943Z,11.90
2023-02-24T06:19:02.953Z,11.30
2023-02-24T06:20:02.912Z,13.10
2023-02-24T06:21:02.898Z,11.70
2023-02-24T06:22:02.988Z,12.10
2023-02-24T06:23:02.876Z,12.30
2023-02-24T06:24:02.908Z,12.20
2023-02-24T06:25:02.851Z,13.00
2023-02-24T06:26:02.845Z,13.10
2023-02-24T06:27:02.829Z,13.00
2023-02-24T06:28:02.827Z,14.20
2023-02-24T06:29:02.826Z,14.60
2023-02-24T06:30:02.814Z,13.80
2023-02-24T06:31:02.849Z,15.00
2023-02-24T06:32:02.854Z,15.20
2023-02-24T06:33:02.785Z,13.20
2023-02-24T06:34:02.799Z,12.90
2023-02-24T06:35:02.745Z,13.70
2023-02-24T06:36:02.743Z,12.70
2023-02-24T06:37:02.730Z,12.20
2023-02-24T06:38:02.716Z,14.30
2023-02-24T06:39:02.710Z,12.30
2023-02-24T06:40:02.730Z,11.30
2023-02-24T06:41:02.707Z,12.80
2023-02-24T06:42:02.687Z,12.90
2023-02-24T06:43:02.671Z,13.60
2023-02-24T06:44:02.659Z,12.90
2023-02-24T06:45:02.676Z,13.50
2023-02-24T06:46:02.693Z,14.10
2023-02-24T06:47:02.629Z,13.70
2023-02-24T06:48:02.628Z,14.50
2023-02-24T06:49:02.613Z,14.80
2023-02-24T06:50:02.640Z,14.40
2023-02-24T06:51:02.588Z,13.30
2023-02-24T06:52:02.582Z,13.20
2023-02-24T06:53:02.562Z,14.40
2023-02-24T06:54:02.565Z,14.60
2023-02-24T06:55:02.581Z,14.50
2023-02-24T06:56:02.543Z,14.80
2023-02-24T06:57:02.524Z,14.00
2023-02-24T06:58:02.516Z,14.90
2023-02-24T06:59:02.510Z,14.30
2023-02-24T07:00:02.522Z,14.10
2023-02-24T07:01:02.536Z,13.90
2023-02-24T07:02:02.484Z,14.20
2023-02-24T07:03:02.461Z,14.70
2023-02-24T07:04:02.530Z,15.10
2023-02-24T07:05:02.461Z,15.20
2023-02-24T07:06:02.434Z,13.80
2023-02-24T07:07:02.414Z,14.80
2023-02-24T07:08:02.464Z,14.50
2023-02-24T07:09:02.412Z,14.60
2023-02-24T07:10:02.414Z,15.30
2023-02-24T07:11:02.386Z,14.00
2023-02-24T07:12:02.386Z,14.80
2023-02-24T07:13:02.356Z,14.10
2023-02-24T07:14:02.361Z,13.70
2023-02-24T07:15:02.360Z,14.90
2023-02-24T07:16:02.329Z,14.90
2023-02-24T07:17:02.395Z,14.00
2023-02-24T07:18:02.309Z,15.30
2023-02-24T07:19:02.310Z,16.80
2023-02-24T07:20:02.333Z,15.50
2023-02-24T07:21:02.280Z,15.60
2023-02-24T07:22:02.286Z,15.50
2023-02-24T07:23:02.250Z,14.90
2023-02-24T07:24:02.251Z,15.00
2023-02-24T07:25:02.260Z,15.80
2023-02-24T07:26:02.232Z,16.00
2023-02-24T07:27:02.216Z,16.60
2023-02-24T07:28:02.230Z,16.90
2023-02-24T07:29:02.191Z,17.10
2023-02-24T07:30:02.204Z,17.40
2023-02-24T07:31:02.302Z,17.80
2023-02-24T07:32:02.312Z,17.60
2023-02-24T07:33:02.162Z,16.20
2023-02-24T07:34:02.167Z,17.40
2023-02-24T07:35:02.145Z,18.10
2023-02-24T07:36:02.135Z,17.30
2023-02-24T07:37:02.133Z,16.40
2023-02-24T07:38:02.140Z,17.80
2023-02-24T07:39:02.096Z,17.50
2023-02-24T07:40:02.096Z,16.60
2023-02-24T07:41:02.063Z,17.10
2023-02-24T07:42:02.059Z,17.90
2023-02-24T07:43:02.051Z,17.00
2023-02-24T07:44:02.044Z,17.20
2023-02-24T07:45:02.092Z,16.30
2023-02-24T07:46:02.024Z,16.50
2023-02-24T07:47:02.003Z,15.80
2023-02-24T07:48:02.018Z,17.90
2023-02-24T07:49:01.981Z,16.20
2023-02-24T07:50:01.996Z,15.90
2023-02-24T07:51:01.954Z,17.00
2023-02-24T07:52:02.000Z,16.60
2023-02-24T07:53:01.935Z,15.60
2023-02-24T07:54:01.945Z,15.30
2023-02-24T07:55:01.951Z,16.00
2023-02-24T07:56:02.018Z,15.40
2023-02-24T07:57:01.889Z,14.80
2023-02-24T07:58:01.894Z,14.40
2023-02-24T07:59:01.878Z,13.60
2023-02-24T08:00:01.876Z,14.50
2023-02-24T08:01:01.855Z,13.90
2023-02-24T08:02:01.845Z,15.40
2023-02-24T08:03:01.837Z,14.80
2023-02-24T08:04:01.834Z,13.90
2023-02-24T08:05:01.826Z,13.70
2023-02-24T08:06:01.798Z,13.70
2023-02-24T08:07:01.791Z,13.30
2023-02-24T08:08:01.788Z,12.30
2023-02-24T08:09:01.768Z,12.60
2023-02-24T08:10:01.790Z,12.70
2023-02-24T08:11:01.748Z,12.70
2023-02-24T08:12:01.745Z,11.70
2023-02-24T08:13:01.730Z,12.60
2023-02-24T08:14:01.721Z,12.50
2023-02-24T08:15:01.741Z,12.60
2023-02-24T08:16:01.721Z,12.60
2023-02-24T08:17:01.744Z,11.90
2023-02-24T08:18:01.676Z,11.70
2023-02-24T08:19:01.661Z,12.50
2023-02-24T08:20:02.161Z,13.00
2023-02-24T08:21:01.643Z,11.70
2023-02-24T08:22:01.654Z,12.40
2023-02-24T08:23:01.632Z,12.30
2023-02-24T08:24:01.614Z,12.60
2023-02-24T08:25:01.623Z,12.30
2023-02-24T08:26:01.624Z,12.80
2023-02-24T08:27:01.582Z,11.20
2023-02-24T08:28:07.822Z,11.60
2023-02-24T08:29:02.555Z,12.50
2023-02-24T08:30:01.598Z,11.90
2023-02-24T08:31:01.656Z,13.30
2023-02-24T08:32:01.579Z,12.90
2023-02-24T08:33:01.519Z,12.70
2023-02-24T08:34:01.529Z,12.50
2023-02-24T08:35:01.517Z,13.20
2023-02-24T08:36:02.059Z,11.90
2023-02-24T08:37:01.477Z,12.00
2023-02-24T08:38:01.475Z,11.50
2023-02-24T08:39:01.459Z,11.90
2023-02-24T08:40:01.498Z,12.70
2023-02-24T08:41:01.437Z,12.20
2023-02-24T08:42:01.435Z,12.40
2023-02-24T08:43:01.412Z,12.00
2023-02-24T08:44:01.410Z,12.60
2023-02-24T08:45:01.410Z,12.90
2023-02-24T08:46:01.394Z,12.70
2023-02-24T08:47:01.419Z,12.60
2023-02-24T08:48:01.371Z,10.60
2023-02-24T08:49:01.400Z,11.90
2023-02-24T08:50:01.366Z,11.30
2023-02-24T08:51:01.340Z,10.60
2023-02-24T08:52:01.336Z,11.50
2023-02-24T08:53:01.315Z,10.70
2023-02-24T08:54:01.325Z,11.30
2023-02-24T08:55:01.320Z,10.60
2023-02-24T08:56:01.290Z,10.60
2023-02-24T08:57:01.280Z,10.60
2023-02-24T08:58:01.270Z,11.10
2023-02-24T08:59:01.254Z,10.30
2023-02-24T09:00:01.271Z,9.60
2023-02-24T09:01:01.334Z,9.80
2023-02-24T09:02:04.696Z,10.10
2023-02-24T09:03:01.212Z,11.00
2023-02-24T09:04:01.209Z,9.90
2023-02-24T09:05:01.261Z,10.00
2023-02-24T09:06:01.205Z,10.70
2023-02-24T09:07:11.221Z,10.50
2023-02-24T09:08:02.184Z,9.80
2023-02-24T09:09:01.152Z,9.90
2023-02-24T09:10:01.154Z,9.90
2023-02-24T09:11:01.153Z,9.60
2023-02-24T09:12:01.127Z,10.30
2023-02-24T09:13:01.108Z,9.30
2023-02-24T09:14:01.111Z,9.80
2023-02-24T09:15:01.161Z,9.70
2023-02-24T09:16:01.123Z,9.90
2023-02-24T09:17:01.085Z,9.50
2023-02-24T09:18:01.062Z,10.10
2023-02-24T09:19:01.052Z,9.90
2023-02-24T09:20:01.041Z,9.70
2023-02-24T09:21:01.060Z,9.30
2023-02-24T09:22:01.837Z,10.10
2023-02-24T09:23:01.008Z,10.70
2023-02-24T09:24:01.003Z,10.10
2023-02-24T09:25:00.998Z,9.90
2023-02-24T09:26:01.000Z,10.20
2023-02-24T09:27:00.962Z,10.60
2023-02-24T09:28:00.960Z,10.50
2023-02-24T09:29:00.944Z,9.90
2023-02-24T09:30:00.939Z,10.10
2023-02-24T09:31:00.960Z,9.80
2023-02-24T09:32:01.006Z,9.30
2023-02-24T09:33:01.078Z,9.90
2023-02-24T09:34:00.891Z,8.90
2023-02-24T09:35:00.901Z,9.70
2023-02-24T09:36:00.912Z,10.20
2023-02-24T09:37:00.864Z,9.40
2023-02-24T09:38:00.857Z,9.20
2023-02-24T09:39:01.091Z,8.50
2023-02-24T09:40:00.824Z,8.30
2023-02-24T09:41:07.474Z,7.30
2023-02-24T09:42:01.837Z,7.50
2023-02-24T09:43:00.807Z,8.60
2023-02-24T09:44:00.797Z,8.50
2023-02-24T09:45:00.802Z,7.90
2023-02-24T09:46:00.924Z,8.20
2023-02-24T09:47:00.811Z,7.60
2023-02-24T09:48:00.748Z,7.60
2023-02-24T09:49:00.737Z,8.00
2023-02-24T09:50:00.773Z,7.50
2023-02-24T09:51:03.593Z,20.30
2023-02-24T09:52:00.892Z,22.30
2023-02-24T09:53:10.757Z,13.20
2023-02-24T09:54:01.677Z,7.20
2023-02-24T09:55:00.706Z,7.20
2023-02-24T09:56:00.683Z,7.00
2023-02-24T09:57:00.660Z,7.30
2023-02-24T09:58:00.701Z,7.50
2023-02-24T09:59:00.645Z,7.00
2023-02-24T10:00:00.690Z,7.20
2023-02-24T10:01:00.672Z,7.20
2023-02-24T10:02:00.693Z,6.40
2023-02-24T10:03:00.600Z,6.70
2023-02-24T10:04:02.363Z,6.50
2023-02-24T10:05:01.623Z,6.20
2023-02-24T10:06:00.581Z,6.30
2023-02-24T10:07:00.639Z,6.00
2023-02-24T10:08:00.533Z,5.60
2023-02-24T10:09:00.534Z,6.20
2023-02-24T10:10:00.522Z,5.70
2023-02-24T10:11:00.536Z,6.30
2023-02-24T10:12:00.495Z,6.30
2023-02-24T10:13:00.525Z,5.40
2023-02-24T10:14:03.721Z,5.70
2023-02-24T10:15:00.782Z,6.20
2023-02-24T10:16:06.226Z,5.30
2023-02-24T10:17:01.670Z,5.50
2023-02-24T10:18:00.438Z,5.60
2023-02-24T10:19:00.436Z,5.70
2023-02-24T10:20:00.479Z,5.70
2023-02-24T10:21:00.482Z,5.40
2023-02-24T10:22:00.495Z,4.90
2023-02-24T10:23:00.386Z,4.70
2023-02-24T10:24:00.370Z,4.70
2023-02-24T10:25:00.359Z,4.90
2023-02-24T10:26:06.759Z,5.00
2023-02-24T10:27:08.178Z,4.80
2023-02-24T10:28:01.334Z,5.00
2023-02-24T10:29:00.333Z,5.20
2023-02-24T10:30:00.349Z,5.30
2023-02-24T10:31:00.439Z,4.60
2023-02-24T10:32:00.542Z,4.90
2023-02-24T10:33:00.365Z,5.30
2023-02-24T10:34:00.265Z,5.20
2023-02-24T10:35:00.261Z,5.30
2023-02-24T10:36:00.243Z,4.70
2023-02-24T10:37:00.272Z,5.20
2023-02-24T10:38:00.223Z,5.70
2023-02-24T10:39:00.224Z,4.90
2023-02-24T10:40:00.206Z,4.60
2023-02-24T10:41:00.206Z,4.70
2023-02-24T10:42:00.209Z,4.90
2023-02-24T10:43:00.177Z,5.10
2023-02-24T10:44:00.322Z,4.80
2023-02-24T10:45:02.797Z,5.40
2023-02-24T10:46:00.185Z,5.50
2023-02-24T10:47:00.377Z,5.50
2023-02-24T10:48:00.126Z,5.10
2023-02-24T10:49:00.116Z,5.40
2023-02-24T10:50:00.125Z,4.90
2023-02-24T10:51:00.115Z,4.90
2023-02-24T10:52:00.112Z,5.30
2023-02-24T10:53:00.094Z,5.00
2023-02-24T10:54:00.062Z,4.60
2023-02-24T10:55:00.097Z,4.80
2023-02-24T10:56:00.045Z,4.90
2023-02-24T10:57:00.052Z,5.10
2023-02-24T10:58:00.018Z,5.50
2023-02-24T10:59:01.803Z,4.80
2023-02-24T10:59:59.993Z,4.40
2023-02-24T11:01:00.035Z,5.80
2023-02-24T11:02:00.001Z,4.60
2023-02-24T11:02:59.969Z,5.40
2023-02-24T11:03:59.963Z,5.20
2023-02-24T11:05:01.201Z,4.60
2023-02-24T11:05:59.931Z,5.10
2023-02-24T11:06:59.940Z,5.50
2023-02-24T11:07:59.910Z,5.00
2023-02-24T11:08:59.910Z,4.90
2023-02-24T11:09:59.912Z,5.00
2023-02-24T11:10:59.881Z,5.00
2023-02-24T11:11:59.907Z,5.10
2023-02-24T11:13:09.016Z,5.00
2023-02-24T11:14:00.857Z,5.20
2023-02-24T11:14:59.841Z,5.10
2023-02-24T11:15:59.861Z,5.20
2023-02-24T11:16:59.835Z,5.30
2023-02-24T11:17:59.908Z,5.20
2023-02-24T11:18:59.805Z,4.90
2023-02-24T11:19:59.794Z,5.10
2023-02-24T11:20:59.773Z,5.10
2023-02-24T11:21:59.794Z,4.60
2023-02-24T11:22:59.756Z,4.90
2023-02-24T11:23:59.854Z,5.90
2023-02-24T11:25:01.731Z,5.00
2023-02-24T11:25:59.732Z,5.00
2023-02-24T11:27:02.925Z,7.20
2023-02-24T11:27:59.710Z,7.30
2023-02-24T11:28:59.693Z,5.20
2023-02-24T11:29:59.685Z,4.60
2023-02-24T11:30:59.728Z,5.40
2023-02-24T11:31:59.803Z,5.30
2023-02-24T11:32:59.665Z,7.10
2023-02-24T11:33:59.662Z,8.40
2023-02-24T11:34:59.637Z,6.80
2023-02-24T11:35:59.635Z,6.10
2023-02-24T11:36:59.627Z,5.90
2023-02-24T11:37:59.595Z,5.50
2023-02-24T11:39:15.245Z,6.00
2023-02-24T11:40:00.597Z,6.30
2023-02-24T11:40:59.576Z,6.10
2023-02-24T11:41:59.572Z,5.40
2023-02-24T11:42:59.551Z,5.20
2023-02-24T11:43:59.533Z,5.10
2023-02-24T11:44:59.529Z,5.80
2023-02-24T11:45:59.542Z,5.40
2023-02-24T11:46:59.526Z,5.60
2023-02-24T11:47:59.490Z,5.90
2023-02-24T11:48:59.493Z,6.20
2023-02-24T11:49:59.474Z,5.10
2023-02-24T11:50:59.468Z,6.10
2023-02-24T11:51:59.473Z,6.20
2023-02-24T11:52:59.442Z,5.90
2023-02-24T11:53:59.442Z,6.40
2023-02-24T11:54:59.425Z,6.30
2023-02-24T11:55:59.401Z,6.30
2023-02-24T11:56:59.426Z,7.40
2023-02-24T11:57:59.399Z,6.50
2023-02-24T11:58:59.377Z,7.20
2023-02-24T11:59:59.367Z,6.80
2023-02-24T12:00:59.359Z,6.50
2023-02-24T12:01:59.380Z,7.10
2023-02-24T12:02:59.441Z,7.30
2023-02-24T12:03:59.344Z,6.80
2023-02-24T12:04:59.329Z,7.30
2023-02-24T12:05:59.353Z,7.30
2023-02-24T12:06:59.300Z,7.10
2023-02-24T12:07:59.298Z,7.00
2023-02-24T12:08:59.280Z,6.80
2023-02-24T12:10:14.090Z,7.00
2023-02-24T12:11:00.286Z,7.80
2023-02-24T12:11:59.240Z,7.30
2023-02-24T12:12:59.249Z,7.40
2023-02-24T12:13:59.231Z,7.20
2023-02-24T12:14:59.210Z,7.40
2023-02-24T12:15:59.251Z,6.90
2023-02-24T12:16:59.201Z,8.20
2023-02-24T12:17:59.200Z,7.10
2023-02-24T12:18:59.206Z,7.30
2023-02-24T12:19:59.173Z,7.20
2023-02-24T12:20:59.170Z,7.10
2023-02-24T12:21:59.162Z,6.50
2023-02-24T12:22:59.179Z,7.40
2023-02-24T12:23:59.121Z,7.10
2023-02-24T12:24:59.126Z,7.00
2023-02-24T12:25:59.126Z,7.50
2023-02-24T12:26:59.095Z,6.50
2023-02-24T12:27:59.092Z,6.80
2023-02-24T12:28:59.073Z,7.40
2023-02-24T12:29:59.061Z,7.40
2023-02-24T12:30:59.084Z,7.20
2023-02-24T12:31:59.120Z,7.50
2023-02-24T12:32:59.152Z,7.20
2023-02-24T12:33:59.013Z,6.80
2023-02-24T12:34:59.005Z,7.70
2023-02-24T12:35:58.984Z,7.00
2023-02-24T12:36:58.990Z,7.30
2023-02-24T12:37:58.997Z,7.20
2023-02-24T12:38:58.957Z,7.40
2023-02-24T12:39:58.961Z,7.80
2023-02-24T12:40:58.949Z,7.50
2023-02-24T12:41:58.925Z,7.00
2023-02-24T12:42:58.935Z,6.90
2023-02-24T12:43:58.902Z,7.30
2023-02-24T12:44:58.896Z,7.70
2023-02-24T12:45:58.940Z,7.10
2023-02-24T12:46:58.877Z,7.50
2023-02-24T12:47:58.874Z,7.60
2023-02-24T12:48:58.872Z,8.20
2023-02-24T12:49:58.845Z,7.60
2023-02-24T12:50:58.849Z,7.70
2023-02-24T12:51:58.827Z,7.60
2023-02-24T12:52:58.838Z,7.80
2023-02-24T12:53:58.796Z,8.60
2023-02-24T12:54:58.803Z,8.50
2023-02-24T12:55:58.790Z,7.70
2023-02-24T12:56:58.771Z,8.20
2023-02-24T12:57:58.817Z,8.90
2023-02-24T12:58:58.811Z,8.60
2023-02-24T12:59:58.738Z,8.00
2023-02-24T13:00:58.815Z,8.30